createdAt,value
2022-08-26T00:02:32.744Z,61.70
2022-08-26T00:05:44.542Z,61.70
2022-08-26T00:08:53.050Z,61.60
2022-08-26T00:12:00.563Z,61.60
2022-08-26T00:15:09.851Z,61.60
2022-08-26T00:18:22.275Z,61.60
2022-08-26T00:21:32.832Z,61.60
2022-08-26T00:24:48.051Z,61.60
2022-08-26T00:27:55.934Z,61.60
2022-08-26T00:31:03.662Z,61.60
2022-08-26T00:34:12.035Z,61.50
2022-08-26T00:37:22.512Z,61.50
2022-08-26T00:40:35.934Z,61.50
2022-08-26T00:43:47.362Z,61.50
2022-08-26T00:46:58.883Z,61.50
2022-08-26T00:50:11.069Z,61.50
2022-08-26T00:53:27.846Z,61.50
2022-08-26T00:56:39.779Z,61.40
2022-08-26T00:59:50.357Z,61.40
2022-08-26T01:02:59.179Z,61.40
2022-08-26T01:06:12.488Z,61.40
2022-08-26T01:09:25.099Z,61.40
2022-08-26T01:12:40.189Z,61.30
2022-08-26T01:15:52.265Z,61.30
2022-08-26T01:19:04.836Z,61.30
2022-08-26T01:22:17.675Z,61.40
2022-08-26T01:25:30.358Z,61.40
2022-08-26T01:28:40.865Z,61.40
2022-08-26T01:31:55.619Z,61.40
2022-08-26T01:35:04.242Z,61.40
2022-08-26T01:38:13.079Z,61.40
2022-08-26T01:41:27.276Z,61.40
2022-08-26T01:44:41.463Z,61.40
2022-08-26T01:47:56.510Z,61.40
2022-08-26T01:51:07.340Z,61.40
2022-08-26T01:54:15.317Z,61.50
2022-08-26T01:57:27.935Z,61.50
2022-08-26T02:00:37.223Z,61.40
2022-08-26T02:03:59.616Z,61.40
2022-08-26T02:07:12.747Z,61.40
2022-08-26T02:10:20.798Z,61.40
2022-08-26T02:13:34.117Z,61.40
2022-08-26T02:16:44.504Z,61.30
2022-08-26T02:19:53.171Z,61.30
2022-08-26T02:23:00.788Z,61.30
2022-08-26T02:26:12.995Z,61.30
2022-08-26T02:29:35.115Z,61.30
2022-08-26T02:32:43.562Z,61.30
2022-08-26T02:35:51.114Z,61.20
2022-08-26T02:38:58.745Z,61.20
2022-08-26T02:42:06.401Z,61.20
2022-08-26T02:45:23.256Z,61.20
2022-08-26T02:48:31.424Z,61.20
2022-08-26T02:51:38.945Z,61.20
2022-08-26T02:54:47.772Z,61.20
2022-08-26T02:57:57.347Z,61.10
2022-08-26T03:01:07.750Z,61.10
2022-08-26T03:04:16.169Z,61.10
2022-08-26T03:07:23.487Z,61.10
2022-08-26T03:10:32.503Z,61.10
2022-08-26T03:13:40.456Z,61.00
2022-08-26T03:16:52.114Z,61.00
2022-08-26T03:19:59.553Z,61.00
2022-08-26T03:23:07.064Z,61.00
2022-08-26T03:26:16.664Z,61.00
2022-08-26T03:29:40.411Z,60.90
2022-08-26T03:32:50.633Z,60.90
2022-08-26T03:35:58.317Z,60.90
2022-08-26T03:39:05.807Z,60.90
2022-08-26T03:42:13.411Z,60.90
2022-08-26T03:45:22.664Z,60.90
2022-08-26T03:48:34.347Z,60.90
2022-08-26T03:51:42.366Z,60.80
2022-08-26T03:54:50.019Z,60.70
2022-08-26T03:57:57.784Z,60.70
2022-08-26T04:01:05.361Z,60.70
2022-08-26T04:04:18.659Z,60.70
2022-08-26T04:07:30.208Z,60.70
2022-08-26T04:10:41.036Z,60.70
2022-08-26T04:13:49.726Z,60.70
2022-08-26T04:16:58.614Z,60.70
2022-08-26T04:20:10.255Z,60.70
2022-08-26T04:23:17.931Z,60.70
2022-08-26T04:26:26.584Z,60.70
2022-08-26T04:29:34.348Z,60.70
2022-08-26T04:32:42.418Z,60.70
2022-08-26T04:35:53.348Z,60.60
2022-08-26T04:39:02.554Z,60.60
2022-08-26T04:42:10.204Z,60.60
2022-08-26T04:45:17.658Z,60.60
2022-08-26T04:48:31.629Z,60.60
2022-08-26T04:51:42.392Z,60.60
2022-08-26T04:54:51.419Z,60.60
2022-08-26T04:57:58.997Z,60.60
2022-08-26T05:01:06.603Z,60.50
2022-08-26T05:04:16.227Z,60.50
2022-08-26T05:07:26.344Z,60.60
2022-08-26T05:10:35.205Z,60.50
2022-08-26T05:13:42.732Z,60.60
2022-08-26T05:16:50.214Z,60.60
2022-08-26T05:19:57.623Z,60.50
2022-08-26T05:23:07.822Z,60.50
2022-08-26T05:26:15.324Z,60.50
2022-08-26T05:29:24.011Z,60.50
2022-08-26T05:32:32.175Z,60.40
2022-08-26T05:35:40.619Z,60.40
2022-08-26T05:38:51.041Z,60.40
2022-08-26T05:41:58.377Z,60.40
2022-08-26T05:45:05.784Z,60.40
2022-08-26T05:48:14.599Z,60.30
2022-08-26T05:51:25.867Z,60.30
2022-08-26T05:54:36.746Z,60.30
2022-08-26T05:57:45.330Z,60.30
2022-08-26T06:01:01.588Z,60.20
2022-08-26T06:04:10.361Z,60.20
2022-08-26T06:07:17.829Z,60.20
2022-08-26T06:10:32.499Z,60.30
2022-08-26T06:13:41.701Z,60.20
2022-08-26T06:16:49.490Z,60.20
2022-08-26T06:19:56.780Z,60.20
2022-08-26T06:23:19.995Z,60.20
2022-08-26T06:26:32.159Z,60.10
2022-08-26T06:29:40.116Z,60.10
2022-08-26T06:32:49.441Z,60.00
2022-08-26T06:35:57.076Z,60.00
2022-08-26T06:39:10.242Z,59.90
2022-08-26T06:42:20.307Z,60.00
2022-08-26T06:45:27.886Z,59.90
2022-08-26T06:48:36.287Z,59.90
2022-08-26T06:51:44.386Z,59.90
2022-08-26T06:54:51.759Z,59.80
2022-08-26T06:58:03.618Z,59.80
2022-08-26T07:01:18.712Z,59.80
2022-08-26T07:04:28.148Z,59.80
2022-08-26T07:07:35.680Z,59.70
2022-08-26T07:10:43.905Z,59.70
2022-08-26T07:13:55.257Z,59.70
2022-08-26T07:17:03.203Z,59.60
2022-08-26T07:20:11.855Z,59.50
2022-08-26T07:23:19.205Z,59.40
2022-08-26T07:26:28.951Z,59.40
2022-08-26T07:29:42.609Z,59.40
2022-08-26T07:32:50.313Z,59.20
2022-08-26T07:35:57.956Z,59.10
2022-08-26T07:39:08.168Z,59.00
2022-08-26T07:42:18.431Z,59.00
2022-08-26T07:45:28.966Z,59.20
2022-08-26T07:48:36.898Z,59.10
2022-08-26T07:51:45.150Z,59.20
2022-08-26T07:54:52.463Z,59.10
2022-08-26T07:57:59.839Z,59.20
2022-08-26T08:01:10.712Z,59.20
2022-08-26T08:04:25.591Z,59.10
2022-08-26T08:07:44.529Z,59.00
2022-08-26T08:10:53.594Z,58.90
2022-08-26T08:14:01.937Z,58.90
2022-08-26T08:20:25.797Z,58.80
2022-08-26T08:23:34.508Z,58.90
2022-08-26T08:26:42.111Z,59.00
2022-08-26T08:29:50.362Z,58.80
2022-08-26T08:33:03.470Z,59.00
2022-08-26T08:36:11.349Z,59.10
2022-08-26T08:39:26.498Z,59.30
2022-08-26T08:42:44.813Z,59.40
2022-08-26T08:45:56.927Z,59.50
2022-08-26T08:49:07.311Z,59.50
2022-08-26T08:52:22.713Z,59.40
2022-08-26T08:55:44.391Z,59.40
2022-08-26T08:59:03.358Z,59.30
2022-08-26T09:02:18.913Z,59.30
2022-08-26T09:05:35.140Z,59.20
2022-08-26T09:08:42.844Z,59.20
2022-08-26T09:11:50.361Z,59.30
2022-08-26T09:15:03.545Z,59.20
2022-08-26T09:18:21.070Z,59.20
2022-08-26T09:21:31.604Z,59.10
2022-08-26T09:24:48.212Z,59.10
2022-08-26T09:27:57.095Z,59.10
2022-08-26T09:31:14.381Z,59.10
2022-08-26T09:34:24.799Z,59.00
2022-08-26T09:41:02.374Z,59.00
2022-08-26T09:44:21.868Z,59.10
2022-08-26T09:47:33.291Z,59.10
2022-08-26T09:50:43.325Z,59.00
2022-08-26T09:53:58.220Z,59.00
2022-08-26T09:57:24.961Z,59.10
2022-08-26T10:00:40.932Z,59.00
2022-08-26T10:03:49.138Z,59.00
2022-08-26T10:07:02.401Z,58.90
2022-08-26T10:10:18.961Z,58.90
2022-08-26T10:13:35.324Z,58.80
2022-08-26T10:16:50.910Z,58.90
2022-08-26T10:20:03.432Z,58.80
2022-08-26T10:23:17.263Z,58.70
2022-08-26T10:26:33.386Z,58.70
2022-08-26T10:29:45.842Z,58.80
2022-08-26T10:32:59.134Z,58.80
2022-08-26T10:36:31.181Z,58.80
2022-08-26T10:39:48.077Z,58.90
2022-08-26T10:43:11.000Z,58.80
2022-08-26T10:46:27.293Z,58.70
2022-08-26T10:49:35.298Z,58.70
2022-08-26T10:52:57.183Z,58.70
2022-08-26T10:56:15.797Z,58.60
2022-08-26T10:59:41.915Z,58.60
2022-08-26T11:02:52.908Z,58.70
2022-08-26T11:06:26.165Z,58.60
2022-08-26T11:09:49.969Z,58.60
2022-08-26T11:13:00.939Z,58.70
2022-08-26T11:16:14.282Z,58.80
2022-08-26T11:20:01.587Z,58.70
2022-08-26T11:23:50.261Z,58.60
2022-08-26T11:26:58.231Z,58.70
2022-08-26T11:30:09.058Z,58.80
2022-08-26T11:33:51.368Z,58.70
2022-08-26T11:37:04.041Z,58.50
2022-08-26T11:40:13.463Z,58.60
2022-08-26T11:43:25.029Z,58.50
2022-08-26T11:46:37.819Z,58.50
2022-08-26T11:49:47.014Z,58.50
2022-08-26T11:53:02.414Z,58.50
2022-08-26T11:56:13.281Z,58.50
2022-08-26T11:59:27.709Z,58.50
2022-08-26T12:02:38.408Z,58.50
2022-08-26T12:05:48.307Z,58.60
2022-08-26T12:09:01.039Z,58.60
2022-08-26T12:12:17.399Z,58.40
2022-08-26T12:15:25.033Z,58.30
2022-08-26T12:18:35.939Z,58.20
2022-08-26T12:21:43.641Z,58.00
2022-08-26T12:24:56.582Z,58.20
2022-08-26T12:28:08.824Z,58.10
2022-08-26T12:31:25.117Z,58.00
2022-08-26T12:34:33.124Z,58.00
2022-08-26T12:37:44.997Z,58.00
2022-08-26T12:40:55.928Z,58.00
2022-08-26T12:44:03.285Z,58.00
2022-08-26T12:47:14.152Z,58.00
2022-08-26T12:50:30.915Z,58.00
2022-08-26T12:53:46.063Z,58.10
2022-08-26T12:56:56.442Z,58.10
2022-08-26T13:00:36.261Z,58.10
2022-08-26T13:03:48.261Z,58.10
2022-08-26T13:07:18.133Z,58.10
2022-08-26T13:10:37.341Z,58.30
2022-08-26T13:13:48.856Z,58.40
2022-08-26T13:16:57.073Z,58.50
2022-08-26T13:20:04.790Z,58.40
2022-08-26T13:23:12.462Z,58.40
2022-08-26T13:26:20.549Z,58.40
2022-08-26T13:29:30.866Z,58.40
2022-08-26T13:32:39.087Z,58.40
2022-08-26T13:35:46.548Z,58.30
2022-08-26T13:38:54.168Z,58.30
2022-08-26T13:42:01.863Z,58.10
2022-08-26T13:45:13.578Z,58.20
2022-08-26T13:48:23.327Z,58.20
2022-08-26T13:51:31.471Z,58.20
2022-08-26T13:54:39.047Z,58.10
2022-08-26T13:57:46.457Z,58.00
2022-08-26T14:00:57.172Z,58.00
2022-08-26T14:04:05.787Z,58.00
2022-08-26T14:07:13.274Z,58.10
2022-08-26T14:10:20.773Z,58.10
2022-08-26T14:13:30.183Z,58.20
2022-08-26T14:16:58.956Z,58.20
2022-08-26T14:20:09.329Z,58.40
2022-08-26T14:23:16.749Z,58.20
2022-08-26T14:26:28.226Z,58.40
2022-08-26T14:29:37.184Z,58.50
2022-08-26T14:32:51.051Z,58.50
2022-08-26T14:36:18.938Z,58.50
2022-08-26T14:39:26.438Z,58.50
2022-08-26T14:42:36.144Z,58.70
2022-08-26T14:45:46.493Z,58.70
2022-08-26T14:48:56.951Z,58.70
2022-08-26T14:52:09.407Z,58.60
2022-08-26T14:55:14.061Z,58.80
2022-08-26T14:58:21.449Z,58.70
2022-08-26T15:01:31.115Z,58.70
2022-08-26T15:04:42.215Z,58.80
2022-08-26T15:07:49.914Z,58.80
2022-08-26T15:10:57.508Z,58.80
2022-08-26T15:14:05.059Z,59.00
2022-08-26T15:17:12.459Z,59.00
2022-08-26T15:20:22.776Z,58.90
2022-08-26T15:23:30.178Z,58.90
2022-08-26T15:26:38.024Z,58.80
2022-08-26T15:29:45.557Z,58.80
2022-08-26T15:32:53.108Z,58.90
2022-08-26T15:36:05.478Z,58.80
2022-08-26T15:39:13.629Z,58.90
2022-08-26T15:42:21.262Z,58.90
2022-08-26T15:45:29.160Z,58.90
2022-08-26T15:48:36.642Z,58.90
2022-08-26T15:51:48.187Z,59.10
2022-08-26T15:54:55.768Z,58.90
2022-08-26T15:58:03.485Z,59.00
2022-08-26T16:01:11.829Z,59.00
2022-08-26T16:04:19.624Z,59.10
2022-08-26T16:07:30.103Z,59.20
2022-08-26T16:10:41.016Z,59.10
2022-08-26T16:13:48.785Z,59.10
2022-08-26T16:16:57.766Z,59.30
2022-08-26T16:20:05.833Z,59.50
2022-08-26T16:23:16.026Z,59.90
2022-08-26T16:26:25.487Z,59.90
2022-08-26T16:29:32.960Z,60.00
2022-08-26T16:32:40.412Z,59.90
2022-08-26T16:35:52.425Z,59.90
2022-08-26T16:39:02.730Z,59.80
2022-08-26T16:42:10.584Z,59.70
2022-08-26T16:45:18.322Z,59.60
2022-08-26T16:48:27.438Z,59.60
2022-08-26T16:51:37.786Z,59.50
2022-08-26T16:54:48.533Z,59.60
2022-08-26T16:57:55.997Z,59.60
2022-08-26T17:01:03.441Z,59.60
2022-08-26T17:04:10.904Z,59.60
2022-08-26T17:07:18.630Z,59.60
2022-08-26T17:10:31.080Z,59.60
2022-08-26T17:13:39.646Z,59.60
2022-08-26T17:16:47.266Z,59.60
2022-08-26T17:19:54.608Z,59.70
2022-08-26T17:23:01.906Z,59.70
2022-08-26T17:26:12.750Z,59.70
2022-08-26T17:29:20.098Z,59.80
2022-08-26T17:32:29.503Z,59.80
2022-08-26T17:35:37.742Z,59.80
2022-08-26T17:38:45.497Z,59.80
2022-08-26T17:41:58.332Z,59.80
2022-08-26T17:45:06.429Z,59.90
2022-08-26T17:48:14.081Z,59.90
2022-08-26T17:51:23.259Z,59.80
2022-08-26T17:54:31.241Z,59.80
2022-08-26T17:57:42.301Z,59.70
2022-08-26T18:00:51.222Z,59.60
2022-08-26T18:04:00.664Z,59.60
2022-08-26T18:07:08.821Z,59.60
2022-08-26T18:10:18.714Z,59.50
2022-08-26T18:13:29.393Z,59.50
2022-08-26T18:16:38.662Z,59.60
2022-08-26T18:19:47.197Z,59.80
2022-08-26T18:22:54.976Z,59.90
2022-08-26T18:26:02.186Z,59.90
2022-08-26T18:29:12.487Z,59.90
2022-08-26T18:32:20.085Z,59.80
2022-08-26T18:35:30.187Z,59.90
2022-08-26T18:38:37.590Z,59.90
2022-08-26T18:41:47.235Z,60.00
2022-08-26T18:44:57.744Z,59.90
2022-08-26T18:48:06.732Z,59.90
2022-08-26T18:51:20.208Z,59.90
2022-08-26T18:54:27.536Z,59.90
2022-08-26T18:57:34.869Z,60.00
2022-08-26T19:00:44.857Z,60.00
2022-08-26T19:03:52.263Z,60.00
2022-08-26T19:06:59.741Z,60.00
2022-08-26T19:10:07.605Z,60.00
2022-08-26T19:13:16.308Z,60.00
2022-08-26T19:16:29.964Z,60.10
2022-08-26T19:19:37.416Z,60.00
2022-08-26T19:22:46.198Z,60.00
2022-08-26T19:25:55.662Z,60.10
2022-08-26T19:29:03.242Z,60.10
2022-08-26T19:32:13.566Z,60.20
2022-08-26T19:35:21.209Z,60.20
2022-08-26T19:38:28.762Z,60.20
2022-08-26T19:41:38.154Z,60.20
2022-08-26T19:45:01.158Z,60.20
2022-08-26T19:48:11.737Z,60.20
2022-08-26T19:51:24.604Z,60.20
2022-08-26T19:54:31.914Z,60.30
2022-08-26T19:57:40.688Z,60.20
2022-08-26T20:00:48.033Z,60.20
2022-08-26T20:03:58.131Z,60.20
2022-08-26T20:07:06.227Z,60.30
2022-08-26T20:10:15.648Z,60.40
2022-08-26T20:13:23.840Z,60.30
2022-08-26T20:16:31.525Z,60.30
2022-08-26T20:19:57.600Z,60.40
2022-08-26T20:23:06.727Z,60.50
2022-08-26T20:26:14.189Z,60.50
2022-08-26T20:29:22.245Z,60.60
2022-08-26T20:32:35.017Z,60.60
2022-08-26T20:35:45.807Z,60.60
2022-08-26T20:38:53.732Z,60.60
2022-08-26T20:42:01.422Z,60.60
2022-08-26T20:45:10.335Z,60.60
2022-08-26T20:48:17.853Z,60.50
2022-08-26T20:51:28.359Z,60.50
2022-08-26T20:54:35.861Z,60.40
2022-08-26T20:57:43.826Z,60.50
2022-08-26T21:00:51.360Z,60.60
2022-08-26T21:04:00.214Z,60.70
2022-08-26T21:07:10.581Z,60.60
2022-08-26T21:10:19.307Z,60.60
2022-08-26T21:13:29.024Z,60.70
2022-08-26T21:16:44.069Z,60.80
2022-08-26T21:19:51.520Z,60.70
2022-08-26T21:23:01.768Z,60.70
2022-08-26T21:26:12.001Z,60.70
2022-08-26T21:29:19.377Z,60.70
2022-08-26T21:32:26.909Z,60.70
2022-08-26T21:35:34.532Z,60.70
2022-08-26T21:38:45.543Z,60.70
2022-08-26T21:41:53.025Z,60.60
2022-08-26T21:45:00.377Z,60.60
2022-08-26T21:48:07.559Z,60.60
2022-08-26T21:51:17.295Z,60.60
2022-08-26T21:54:27.491Z,60.60
2022-08-26T21:57:35.931Z,60.60
2022-08-26T22:00:49.980Z,60.60
2022-08-26T22:03:57.709Z,60.70
2022-08-26T22:07:05.620Z,60.70
2022-08-26T22:10:16.242Z,60.60
2022-08-26T22:13:25.076Z,60.70
2022-08-26T22:16:32.605Z,60.70
2022-08-26T22:19:45.663Z,60.70
2022-08-26T22:22:54.052Z,60.70
2022-08-26T22:26:04.150Z,60.70
2022-08-26T22:29:11.661Z,60.70
2022-08-26T22:32:19.199Z,60.60
2022-08-26T22:35:29.123Z,60.60
2022-08-26T22:38:37.471Z,60.60
2022-08-26T22:41:49.047Z,60.60
2022-08-26T22:44:56.564Z,60.50
2022-08-26T22:48:06.024Z,60.60
2022-08-26T22:51:13.581Z,60.50
2022-08-26T22:54:21.188Z,60.60
2022-08-26T22:57:31.495Z,60.50
2022-08-26T23:00:40.483Z,60.50
2022-08-26T23:03:48.434Z,60.50
2022-08-26T23:06:56.074Z,60.50
2022-08-26T23:10:04.137Z,60.50
2022-08-26T23:13:15.509Z,60.50
2022-08-26T23:16:23.085Z,60.50
2022-08-26T23:19:30.425Z,60.50
2022-08-26T23:22:37.986Z,60.50
2022-08-26T23:25:45.301Z,60.50
2022-08-26T23:28:55.554Z,60.50
2022-08-26T23:32:03.092Z,60.50
2022-08-26T23:35:12.647Z,60.50
2022-08-26T23:38:22.124Z,60.50
2022-08-26T23:41:29.753Z,60.40
2022-08-26T23:44:40.157Z,60.40
2022-08-26T23:47:50.814Z,60.50
2022-08-26T23:51:14.145Z,60.50
2022-08-26T23:54:21.725Z,60.50
2022-08-26T23:57:29.281Z,60.60
